Leo, Texas
Current Conditions -  °F | °C
As of 2:35 AM on Friday 19 Dec 2014 (Local Time) from KGYB Reporting Station
Moderate Rain Moderate Rain  
Wind Chill: 51°   Ceiling: 1300
Heat Index: 51°   Visibility: 7mi
Dew Point: 50°   Wind: 8mph
Humidity: 97%   Direction: 20°NNE
Pressure: 30.07"   Gusts: NA
Location:  30.4292°N, 97.0703°W
Report Text: KGYB 190835Z AUTO 02007KT 7SM RA SCT005 BKN013 OVC021 10/10 A3007 RMK AO2 P0005 T01040100
Loading
Personal Weather Stations






























Interactive Weather Map New forecast layout! Learn more

10-Day Weather Forecast

Advertisements
Track Severe Weather on mobile